LFBT/LDE METAR and TAF weather

Enter ICAO airport designator
Station Type Date Time Source
LFBT METAR 2020/08/15 16:00 UTC NOAA

LFBT 151600Z AUTO 28006KT 9999 FEW100/// BKN140/// ///CB 27/19 Q1011 TEMPO 27020G35KT 3000 TSRA BKN014 BKN030CB


Station Type Date Time Source
LFBT Decoded METAR 2020/08/15 16:00 UTC NOAA

Tarbes Ossun Lourdes, France (LFBT) 43-11N 000-00W 363M
Aug 15, 2020 - 12:00 PM EDT / 2020.08.15 1600 UTC
Wind: from the W (280 degrees) at 7 MPH (6 KT):0
Visibility: greater than 7 mile(s):0
Sky conditions: mostly cloudy
Weather: Cumulonimbus clouds observed
Temperature: 80 F (27 C)
Dew Point: 66 F (19 C)
Relative Humidity: 61%
Pressure (altimeter): 29.85 in. Hg (1011 hPa)
ob: LFBT 151600Z AUTO 28006KT 9999 FEW100/// BKN140/// ///CB 27/19 Q1011 TEMPO 27020G35KT 3000 TSRA BKN014 BKN030CB
cycle: 16

Station Type Date Time Source
LFBT TAF 2020/08/15 15:56 UTC NOAA

TAF
AMD LFBT 151543Z 1515/1612 27005KT 9999 SCT030
TEMPO 1515/1524 27020G35KT 3000 TSRA BKN009 BKN030CB PROB30
TEMPO 1600/1606 27010G20KT 4000 SHRA BKN009 BKN030TCU

Example: see airport list